createdAt,value
2022-12-25T00:02:11.106Z,101232.53
2022-12-25T00:04:38.371Z,101223.06
2022-12-25T00:07:07.793Z,101235.47
2022-12-25T00:09:35.182Z,101236.34
2022-12-25T00:12:02.068Z,101235.78
2022-12-25T00:14:35.624Z,101236.81
2022-12-25T00:17:04.794Z,101224.09
2022-12-25T00:19:33.438Z,101237.13
2022-12-25T00:22:00.339Z,101239.84
2022-12-25T00:24:29.028Z,101245.03
2022-12-25T00:26:55.999Z,101242.41
2022-12-25T00:29:23.297Z,101244.81
2022-12-25T00:31:50.283Z,101246.56
2022-12-25T00:34:17.908Z,101242.97
2022-12-25T00:36:45.049Z,101244.66
2022-12-25T00:39:12.294Z,101237.78
2022-12-25T00:41:59.026Z,101240.19
2022-12-25T00:44:32.142Z,101236.72
2022-12-25T00:46:59.291Z,101238.63
2022-12-25T00:49:34.190Z,101236.25
2022-12-25T00:52:04.663Z,101224.97
2022-12-25T00:54:31.896Z,101239.09
2022-12-25T00:57:01.364Z,101243.81
2022-12-25T00:59:31.890Z,101247.69
2022-12-25T01:02:21.359Z,101255.72
2022-12-25T01:04:49.586Z,101265.22
2022-12-25T01:07:17.054Z,101269.38
2022-12-25T01:10:05.853Z,101274.53
2022-12-25T01:12:40.000Z,101277.31
2022-12-25T01:15:09.232Z,101283.41
2022-12-25T01:17:36.227Z,101283.41
2022-12-25T01:20:05.912Z,101267.88
2022-12-25T01:22:34.986Z,101288.03
2022-12-25T01:25:02.232Z,101290.97
2022-12-25T01:27:29.043Z,101295.00
2022-12-25T01:29:58.835Z,101287.38
2022-12-25T01:32:25.788Z,101292.91
2022-12-25T01:34:56.039Z,101275.47
2022-12-25T01:37:28.392Z,101281.59
2022-12-25T01:39:55.563Z,101276.97
2022-12-25T01:42:24.045Z,101282.19
2022-12-25T01:45:33.274Z,101279.38
2022-12-25T01:48:04.718Z,101276.63
2022-12-25T01:50:34.140Z,101265.59
2022-12-25T01:53:00.934Z,101275.28
2022-12-25T01:55:28.478Z,101270.84
2022-12-25T01:57:56.014Z,101277.09
2022-12-25T02:00:23.376Z,101277.47
2022-12-25T02:02:51.947Z,101292.25
2022-12-25T02:05:25.766Z,101283.69
2022-12-25T02:07:53.743Z,101294.47
2022-12-25T02:10:23.840Z,101292.13
2022-12-25T02:12:51.683Z,101296.66
2022-12-25T02:15:22.716Z,101299.38
2022-12-25T02:18:05.804Z,101301.28
2022-12-25T02:21:03.169Z,101293.53
2022-12-25T02:24:07.120Z,101303.53
2022-12-25T02:26:55.111Z,101297.38
2022-12-25T02:29:32.631Z,101306.53
2022-12-25T02:32:05.760Z,101306.25
2022-12-25T02:34:38.148Z,101307.00
2022-12-25T02:37:12.478Z,101301.72
2022-12-25T02:40:00.746Z,101301.84
2022-12-25T02:42:54.974Z,101300.13
2022-12-25T02:45:47.908Z,101296.81
2022-12-25T02:48:36.195Z,101300.09
2022-12-25T02:51:28.822Z,101308.78
2022-12-25T02:54:18.048Z,101305.38
2022-12-25T02:57:04.830Z,101303.59
2022-12-25T02:59:54.827Z,101304.69
2022-12-25T03:02:42.988Z,101305.56
2022-12-25T03:05:36.971Z,101303.75
2022-12-25T03:08:12.277Z,101314.28
2022-12-25T03:11:03.755Z,101313.47
2022-12-25T03:13:36.413Z,101312.53
2022-12-25T03:16:28.202Z,101311.78
2022-12-25T03:18:58.616Z,101316.84
2022-12-25T03:21:47.328Z,101325.50
2022-12-25T03:24:33.199Z,101333.41
2022-12-25T03:27:03.518Z,101330.53
2022-12-25T03:29:51.457Z,101319.31
2022-12-25T03:32:28.458Z,101323.00
2022-12-25T03:35:25.816Z,101323.06
2022-12-25T03:38:34.854Z,101317.59
2022-12-25T03:41:27.250Z,101326.44
2022-12-25T03:44:21.683Z,101336.34
2022-12-25T03:47:18.510Z,101340.78
2022-12-25T03:50:09.529Z,101328.84
2022-12-25T03:52:58.574Z,101335.25
2022-12-25T03:55:47.927Z,101354.38
2022-12-25T03:58:41.313Z,101364.34
2022-12-25T04:01:26.897Z,101356.72
2022-12-25T04:04:13.281Z,101372.78
2022-12-25T04:06:59.733Z,101385.38
2022-12-25T04:09:49.455Z,101391.91
2022-12-25T04:12:37.353Z,101395.41
2022-12-25T04:15:23.564Z,101399.47
2022-12-25T04:18:15.561Z,101405.59
2022-12-25T04:21:00.973Z,101401.47
2022-12-25T04:23:46.913Z,101408.66
2022-12-25T04:26:34.121Z,101419.00
2022-12-25T04:29:22.924Z,101419.44
2022-12-25T04:32:11.205Z,101422.25
2022-12-25T04:34:57.060Z,101425.25
2022-12-25T04:37:24.042Z,101423.84
2022-12-25T04:39:51.331Z,101413.34
2022-12-25T04:42:19.728Z,101420.34
2022-12-25T04:44:47.085Z,101420.56
2022-12-25T04:47:14.296Z,101416.66
2022-12-25T04:49:41.565Z,101414.91
2022-12-25T04:52:11.832Z,101414.03
2022-12-25T04:54:44.377Z,101408.44
2022-12-25T04:57:11.264Z,101416.75
2022-12-25T04:59:40.778Z,101422.91
2022-12-25T05:02:07.831Z,101426.56
2022-12-25T05:04:34.981Z,101425.81
2022-12-25T05:07:01.831Z,101428.16
2022-12-25T05:09:29.383Z,101442.94
2022-12-25T05:11:59.934Z,101444.97
2022-12-25T05:14:27.150Z,101444.59
2022-12-25T05:16:55.460Z,101448.25
2022-12-25T05:19:27.027Z,101447.47
2022-12-25T05:21:56.394Z,101456.75
2022-12-25T05:24:26.903Z,101451.31
2022-12-25T05:26:53.963Z,101459.84
2022-12-25T05:29:31.978Z,101468.00
2022-12-25T05:32:00.314Z,101463.53
2022-12-25T05:34:27.793Z,101468.94
2022-12-25T05:36:56.480Z,101470.13
2022-12-25T05:39:23.792Z,101471.28
2022-12-25T05:41:50.870Z,101477.13
2022-12-25T05:44:18.064Z,101477.28
2022-12-25T05:46:49.779Z,101485.38
2022-12-25T05:49:19.372Z,101488.09
2022-12-25T05:51:51.795Z,101493.06
2022-12-25T05:54:22.203Z,101499.13
2022-12-25T05:56:51.749Z,101479.00
2022-12-25T05:59:19.159Z,101499.16
2022-12-25T06:01:46.659Z,101502.19
2022-12-25T06:04:16.545Z,101517.91
2022-12-25T06:06:44.979Z,101511.97
2022-12-25T06:09:13.452Z,101502.34
2022-12-25T06:11:40.842Z,101503.16
2022-12-25T06:14:11.745Z,101500.06
2022-12-25T06:16:44.732Z,101490.22
2022-12-25T06:19:13.996Z,101510.53
2022-12-25T06:21:48.815Z,101521.97
2022-12-25T06:24:21.053Z,101520.66
2022-12-25T06:26:48.921Z,101532.41
2022-12-25T06:29:16.444Z,101517.59
2022-12-25T06:31:47.704Z,101515.03
2022-12-25T06:34:27.160Z,101528.22
2022-12-25T06:36:57.161Z,101527.41
2022-12-25T06:39:25.524Z,101527.84
2022-12-25T06:41:52.564Z,101528.41
2022-12-25T06:44:20.005Z,101531.72
2022-12-25T06:46:50.174Z,101527.44
2022-12-25T06:49:17.773Z,101517.16
2022-12-25T06:51:44.633Z,101522.44
2022-12-25T06:54:13.736Z,101528.19
2022-12-25T06:56:40.592Z,101521.03
2022-12-25T06:59:09.542Z,101540.00
2022-12-25T07:01:39.978Z,101554.88
2022-12-25T07:04:15.826Z,101558.31
2022-12-25T07:06:42.719Z,101558.06
2022-12-25T07:09:14.217Z,101556.50
2022-12-25T07:11:41.191Z,101555.13
2022-12-25T07:14:17.427Z,101560.84
2022-12-25T07:16:51.255Z,101578.13
2022-12-25T07:19:19.227Z,101586.81
2022-12-25T07:21:49.160Z,101592.31
2022-12-25T07:27:22.060Z,101589.66
2022-12-25T07:30:07.281Z,101590.13
2022-12-25T07:32:34.364Z,101601.22
2022-12-25T07:35:01.526Z,101609.63
2022-12-25T07:37:30.541Z,101605.03
2022-12-25T07:40:02.058Z,101612.81
2022-12-25T07:42:29.238Z,101614.66
2022-12-25T07:44:56.437Z,101607.91
2022-12-25T07:47:23.312Z,101622.66
2022-12-25T07:49:50.487Z,101614.19
2022-12-25T07:52:18.802Z,101610.44
2022-12-25T07:54:46.038Z,101604.03
2022-12-25T07:57:14.338Z,101603.88
2022-12-25T07:59:41.480Z,101610.53
2022-12-25T08:02:10.287Z,101607.16
2022-12-25T08:04:37.334Z,101613.00
2022-12-25T08:07:04.175Z,101615.78
2022-12-25T08:09:31.399Z,101615.84
2022-12-25T08:11:58.314Z,101610.09
2022-12-25T08:14:27.132Z,101595.25
2022-12-25T08:16:56.924Z,101615.78
2022-12-25T08:19:24.612Z,101626.97
2022-12-25T08:21:51.446Z,101627.53
2022-12-25T08:24:18.843Z,101631.88
2022-12-25T08:26:45.781Z,101646.72
2022-12-25T08:29:13.197Z,101654.88
2022-12-25T08:31:46.463Z,101660.41
2022-12-25T08:34:14.149Z,101659.28
2022-12-25T08:36:41.706Z,101657.56
2022-12-25T08:39:08.886Z,101650.91
2022-12-25T08:41:36.548Z,101659.66
2022-12-25T08:44:04.526Z,101660.19
2022-12-25T08:46:31.850Z,101654.66
2022-12-25T08:49:00.512Z,101656.22
2022-12-25T08:51:27.424Z,101656.00
2022-12-25T08:54:02.593Z,101662.59
2022-12-25T08:56:30.785Z,101656.75
2022-12-25T08:58:58.072Z,101666.84
2022-12-25T09:01:25.148Z,101666.22
2022-12-25T09:03:52.501Z,101661.72
2022-12-25T09:06:20.793Z,101665.94
2022-12-25T09:08:59.946Z,101658.41
2022-12-25T09:11:33.933Z,101659.25
2022-12-25T09:14:01.246Z,101667.75
2022-12-25T09:16:28.443Z,101674.81
2022-12-25T09:18:58.346Z,101668.50
2022-12-25T09:21:28.893Z,101665.22
2022-12-25T09:23:56.213Z,101679.75
2022-12-25T09:26:30.403Z,101674.50
2022-12-25T09:29:00.781Z,101682.72
2022-12-25T09:31:29.999Z,101683.28
2022-12-25T09:33:58.655Z,101681.47
2022-12-25T09:36:28.405Z,101685.75
2022-12-25T09:38:56.882Z,101693.00
2022-12-25T09:41:31.629Z,101698.38
2022-12-25T09:44:09.226Z,101698.75
2022-12-25T09:46:44.971Z,101701.53
2022-12-25T09:49:20.372Z,101696.75
2022-12-25T09:51:52.583Z,101691.06
2022-12-25T09:54:31.244Z,101677.34
2022-12-25T09:57:01.164Z,101696.94
2022-12-25T09:59:30.643Z,101695.72
2022-12-25T10:02:36.640Z,101688.00
2022-12-25T10:05:23.448Z,101681.72
2022-12-25T10:08:04.731Z,101680.91
2022-12-25T10:10:49.709Z,101680.44
2022-12-25T10:13:40.687Z,101683.09
2022-12-25T10:16:21.010Z,101678.88
2022-12-25T10:19:01.379Z,101686.94
2022-12-25T10:21:28.915Z,101676.13
2022-12-25T10:24:05.787Z,101682.41
2022-12-25T10:26:35.640Z,101685.75
2022-12-25T10:29:13.574Z,101690.53
2022-12-25T10:31:47.792Z,101678.34
2022-12-25T10:34:17.473Z,101687.56
2022-12-25T10:36:46.363Z,101688.59
2022-12-25T10:39:20.325Z,101681.19
2022-12-25T10:42:09.496Z,101690.13
2022-12-25T10:44:36.668Z,101672.72
2022-12-25T10:47:11.574Z,101677.66
2022-12-25T10:49:48.485Z,101671.97
2022-12-25T10:52:20.468Z,101679.28
2022-12-25T10:54:47.311Z,101678.78
2022-12-25T10:57:17.699Z,101676.59
2022-12-25T10:59:46.194Z,101673.47
2022-12-25T11:02:21.321Z,101681.56
2022-12-25T11:04:48.917Z,101674.00
2022-12-25T11:07:24.239Z,101663.59
2022-12-25T11:10:02.722Z,101651.78
2022-12-25T11:12:38.302Z,101661.28
2022-12-25T11:15:27.410Z,101652.53
2022-12-25T11:17:54.663Z,101655.78
2022-12-25T11:20:24.494Z,101641.53
2022-12-25T11:22:54.641Z,101641.13
2022-12-25T11:25:24.261Z,101645.19
2022-12-25T11:28:01.438Z,101642.97
2022-12-25T11:30:36.137Z,101640.13
2022-12-25T11:33:12.115Z,101631.31
2022-12-25T11:35:50.542Z,101635.81
2022-12-25T11:38:35.906Z,101641.06
2022-12-25T11:41:05.098Z,101638.75
2022-12-25T11:43:49.435Z,101648.06
2022-12-25T11:46:24.487Z,101646.63
2022-12-25T11:49:00.594Z,101626.78
2022-12-25T11:51:35.369Z,101621.63
2022-12-25T11:54:16.325Z,101630.31
2022-12-25T11:56:51.044Z,101623.66
2022-12-25T11:59:26.583Z,101614.25
2022-12-25T12:01:59.496Z,101617.47
2022-12-25T12:04:42.026Z,101621.22
2022-12-25T12:07:20.734Z,101622.09
2022-12-25T12:09:58.124Z,101618.59
2022-12-25T12:12:39.713Z,101622.50
2022-12-25T12:15:21.765Z,101614.16
2022-12-25T12:17:50.846Z,101609.28
2022-12-25T12:20:30.494Z,101603.56
2022-12-25T12:23:00.175Z,101578.53
2022-12-25T12:25:28.921Z,101602.69
2022-12-25T12:28:04.503Z,101600.91
2022-12-25T12:30:35.699Z,101610.88
2022-12-25T12:33:19.919Z,101607.59
2022-12-25T12:35:50.311Z,101603.75
2022-12-25T12:38:19.880Z,101601.97
2022-12-25T12:40:53.907Z,101590.72
2022-12-25T12:43:30.347Z,101604.53
2022-12-25T12:46:09.748Z,101602.28
2022-12-25T12:48:44.987Z,101612.44
2022-12-25T12:51:14.431Z,101617.56
2022-12-25T12:53:43.489Z,101618.13
2022-12-25T12:56:13.678Z,101618.88
2022-12-25T12:58:45.546Z,101616.44
2022-12-25T13:01:31.048Z,101613.91
2022-12-25T13:04:15.414Z,101624.69
2022-12-25T13:06:47.294Z,101620.41
2022-12-25T13:09:27.879Z,101623.91
2022-12-25T13:11:55.334Z,101620.13
2022-12-25T13:14:24.726Z,101616.25
2022-12-25T13:16:54.793Z,101638.69
2022-12-25T13:19:24.005Z,101628.63
2022-12-25T13:21:53.663Z,101632.75
2022-12-25T13:24:23.120Z,101625.41
2022-12-25T13:26:54.202Z,101628.81
2022-12-25T13:29:30.170Z,101628.69
2022-12-25T13:32:07.396Z,101638.00
2022-12-25T13:34:38.505Z,101631.28
2022-12-25T13:37:08.792Z,101633.84
2022-12-25T13:39:37.051Z,101632.25
2022-12-25T13:42:06.972Z,101644.00
2022-12-25T13:44:45.312Z,101644.13
2022-12-25T13:47:23.964Z,101649.06
2022-12-25T13:49:56.102Z,101652.72
2022-12-25T13:52:28.601Z,101645.03
2022-12-25T13:54:58.129Z,101642.56
2022-12-25T13:57:33.102Z,101648.84
2022-12-25T14:00:00.837Z,101643.94
2022-12-25T14:02:36.619Z,101644.91
2022-12-25T14:05:05.078Z,101650.66
2022-12-25T14:07:35.208Z,101651.03
2022-12-25T14:10:04.100Z,101656.34
2022-12-25T14:12:37.254Z,101651.34
2022-12-25T14:15:05.559Z,101658.78
2022-12-25T14:17:34.646Z,101654.75
2022-12-25T14:20:07.858Z,101661.34
2022-12-25T14:22:38.520Z,101669.16
2022-12-25T14:25:14.885Z,101661.59
2022-12-25T14:27:49.588Z,101667.66
2022-12-25T14:30:16.930Z,101668.69
2022-12-25T14:32:50.916Z,101673.63
2022-12-25T14:35:41.961Z,101672.66
2022-12-25T14:38:20.601Z,101677.47
2022-12-25T14:40:47.645Z,101673.41
2022-12-25T14:43:23.516Z,101676.00
2022-12-25T14:45:56.009Z,101656.13
2022-12-25T14:48:26.280Z,101667.78
2022-12-25T14:51:00.305Z,101670.56
2022-12-25T14:53:36.155Z,101675.63
2022-12-25T14:56:04.013Z,101680.28
2022-12-25T14:58:34.592Z,101685.00
2022-12-25T15:01:04.665Z,101693.75
2022-12-25T15:03:36.947Z,101688.59
2022-12-25T15:06:05.984Z,101689.22
2022-12-25T15:08:35.752Z,101695.78
2022-12-25T15:11:08.255Z,101695.53
2022-12-25T15:13:35.394Z,101695.97
2022-12-25T15:16:06.150Z,101694.13
2022-12-25T15:18:45.831Z,101703.47
2022-12-25T15:21:16.827Z,101711.38
2022-12-25T15:23:45.365Z,101718.72
2022-12-25T15:26:17.652Z,101712.16
2022-12-25T15:28:45.028Z,101708.34
2022-12-25T15:31:20.751Z,101710.03
2022-12-25T15:33:52.909Z,101714.31
2022-12-25T15:36:22.465Z,101719.16
2022-12-25T15:38:50.955Z,101721.81
2022-12-25T15:41:38.868Z,101709.97
2022-12-25T15:44:07.443Z,101720.38
2022-12-25T15:46:36.451Z,101722.66
2022-12-25T15:49:11.042Z,101716.97
2022-12-25T15:51:52.836Z,101715.53
2022-12-25T15:54:20.147Z,101701.00
2022-12-25T15:56:50.132Z,101714.50
2022-12-25T15:59:20.479Z,101719.41
2022-12-25T16:01:50.331Z,101723.47
2022-12-25T16:04:19.396Z,101716.94
2022-12-25T16:06:46.696Z,101731.25
2022-12-25T16:09:15.750Z,101739.16
2022-12-25T16:11:43.437Z,101732.25
2022-12-25T16:14:12.112Z,101731.56
2022-12-25T16:16:39.602Z,101714.16
2022-12-25T16:19:07.015Z,101713.88
2022-12-25T16:21:39.508Z,101717.25
2022-12-25T16:24:09.538Z,101711.53
2022-12-25T16:26:41.307Z,101725.66
2022-12-25T16:29:11.148Z,101729.53
2022-12-25T16:31:38.997Z,101733.69
2022-12-25T16:34:09.904Z,101732.63
2022-12-25T16:36:44.648Z,101735.81
2022-12-25T16:39:17.131Z,101734.25
2022-12-25T16:41:45.159Z,101726.72
2022-12-25T16:44:35.292Z,101732.09
2022-12-25T16:47:02.538Z,101729.53
2022-12-25T16:49:30.956Z,101721.16
2022-12-25T16:52:00.841Z,101728.13
2022-12-25T16:54:28.376Z,101735.03
2022-12-25T16:56:57.397Z,101728.59
2022-12-25T16:59:27.925Z,101717.22
2022-12-25T17:01:55.009Z,101720.25
2022-12-25T17:04:27.998Z,101721.16
2022-12-25T17:07:02.052Z,101718.06
2022-12-25T17:09:31.533Z,101716.41
2022-12-25T17:11:58.314Z,101713.47
2022-12-25T17:14:25.577Z,101707.91
2022-12-25T17:16:55.074Z,101712.41
2022-12-25T17:19:23.898Z,101704.25
2022-12-25T17:21:51.648Z,101717.34
2022-12-25T17:24:20.637Z,101707.38
2022-12-25T17:26:48.294Z,101705.97
2022-12-25T17:29:22.068Z,101705.31
2022-12-25T17:31:52.995Z,101706.97
2022-12-25T17:34:20.215Z,101693.59
2022-12-25T17:36:47.248Z,101699.34
2022-12-25T17:39:14.818Z,101702.81
2022-12-25T17:41:43.213Z,101704.16
2022-12-25T17:44:11.492Z,101708.41
2022-12-25T17:46:38.490Z,101713.94
2022-12-25T17:49:05.891Z,101699.56
2022-12-25T17:51:32.851Z,101694.16
2022-12-25T17:54:05.341Z,101705.63
2022-12-25T17:56:35.923Z,101705.38
2022-12-25T17:59:10.375Z,101706.00
2022-12-25T18:01:42.262Z,101701.03
2022-12-25T18:04:16.515Z,101708.03
2022-12-25T18:06:45.672Z,101699.25
2022-12-25T18:09:13.425Z,101684.00
2022-12-25T18:11:43.681Z,101699.81
2022-12-25T18:14:16.081Z,101702.63
2022-12-25T18:16:47.671Z,101705.16
2022-12-25T18:19:16.074Z,101701.75
2022-12-25T18:21:45.692Z,101699.50
2022-12-25T18:24:24.181Z,101696.97
2022-12-25T18:26:53.771Z,101692.06
2022-12-25T18:29:22.785Z,101688.94
2022-12-25T18:31:49.833Z,101692.97
2022-12-25T18:34:17.214Z,101692.72
2022-12-25T18:36:44.692Z,101698.16
2022-12-25T18:39:13.080Z,101678.31
2022-12-25T18:41:59.875Z,101691.19
2022-12-25T18:44:33.731Z,101677.88
2022-12-25T18:47:00.623Z,101690.53
2022-12-25T18:49:28.041Z,101678.91
2022-12-25T18:51:54.934Z,101689.31
2022-12-25T18:54:44.598Z,101689.38
2022-12-25T18:57:11.494Z,101691.16
2022-12-25T18:59:41.825Z,101690.38
2022-12-25T19:02:11.011Z,101684.66
2022-12-25T19:04:38.434Z,101684.91
2022-12-25T19:07:07.528Z,101688.31
2022-12-25T19:09:47.468Z,101691.78
2022-12-25T19:12:17.763Z,101700.63
2022-12-25T19:14:47.591Z,101697.22
2022-12-25T19:17:23.437Z,101693.88
2022-12-25T19:19:53.926Z,101693.72
2022-12-25T19:22:20.899Z,101679.53
2022-12-25T19:24:48.084Z,101682.78
2022-12-25T19:27:15.062Z,101679.28
2022-12-25T19:29:48.231Z,101670.00
2022-12-25T19:32:15.259Z,101668.75
2022-12-25T19:34:45.882Z,101671.44
2022-12-25T19:37:24.871Z,101662.09
2022-12-25T19:39:52.183Z,101669.84
2022-12-25T19:42:21.985Z,101664.91
2022-12-25T19:44:53.284Z,101656.31
2022-12-25T19:47:20.314Z,101670.78
2022-12-25T19:49:52.870Z,101670.16
2022-12-25T19:52:22.462Z,101668.94
2022-12-25T19:54:53.195Z,101659.63
2022-12-25T19:57:23.207Z,101648.66
2022-12-25T19:59:51.782Z,101641.56
2022-12-25T20:02:18.976Z,101647.00
2022-12-25T20:04:46.680Z,101649.78
2022-12-25T20:07:15.539Z,101647.94
2022-12-25T20:09:46.212Z,101657.56
2022-12-25T20:12:18.376Z,101651.81
2022-12-25T20:14:52.562Z,101650.78
2022-12-25T20:17:28.614Z,101657.75
2022-12-25T20:20:00.837Z,101650.03
2022-12-25T20:22:30.655Z,101658.94
2022-12-25T20:24:57.774Z,101658.31
2022-12-25T20:27:27.634Z,101652.34
2022-12-25T20:29:56.509Z,101644.63
2022-12-25T20:32:31.217Z,101652.34
2022-12-25T20:34:58.389Z,101647.56
2022-12-25T20:37:25.506Z,101641.66
2022-12-25T20:39:52.730Z,101644.84
2022-12-25T20:42:21.654Z,101646.91
2022-12-25T20:44:49.182Z,101652.34
2022-12-25T20:47:17.655Z,101656.69
2022-12-25T20:49:46.775Z,101646.09
2022-12-25T20:52:13.743Z,101647.78
2022-12-25T20:54:42.467Z,101660.25
2022-12-25T20:57:09.402Z,101673.63
2022-12-25T20:59:40.282Z,101675.47
2022-12-25T21:02:09.092Z,101678.97
2022-12-25T21:05:00.502Z,101682.78
2022-12-25T21:07:29.623Z,101682.78
2022-12-25T21:10:00.563Z,101686.81
2022-12-25T21:12:30.503Z,101667.88
2022-12-25T21:14:57.878Z,101677.41
2022-12-25T21:17:24.692Z,101679.22
2022-12-25T21:19:51.872Z,101679.03
2022-12-25T21:22:20.140Z,101678.09
2022-12-25T21:24:52.086Z,101671.84
2022-12-25T21:27:20.839Z,101655.50
2022-12-25T21:29:48.090Z,101663.13
2022-12-25T21:32:37.031Z,101664.41
2022-12-25T21:35:06.191Z,101661.94
2022-12-25T21:37:37.329Z,101660.38
2022-12-25T21:40:08.978Z,101660.91
2022-12-25T21:42:40.887Z,101676.41
2022-12-25T21:45:18.300Z,101673.78
2022-12-25T21:48:01.971Z,101664.56
2022-12-25T21:50:49.226Z,101664.28
2022-12-25T21:53:18.877Z,101668.69
2022-12-25T21:55:56.852Z,101666.50
2022-12-25T21:58:29.956Z,101671.31
2022-12-25T22:01:01.956Z,101657.84
2022-12-25T22:03:29.520Z,101643.28
2022-12-25T22:06:21.127Z,101642.66
2022-12-25T22:08:55.776Z,101642.06
2022-12-25T22:11:46.410Z,101633.34
2022-12-25T22:14:50.328Z,101621.75
2022-12-25T22:17:44.381Z,101628.41
2022-12-25T22:20:19.177Z,101619.44
2022-12-25T22:22:46.497Z,101629.34
2022-12-25T22:25:15.866Z,101624.38
2022-12-25T22:27:44.205Z,101633.91
2022-12-25T22:30:13.138Z,101624.22
2022-12-25T22:32:40.839Z,101622.78
2022-12-25T22:35:11.582Z,101627.13
2022-12-25T22:37:41.288Z,101631.06
2022-12-25T22:40:10.206Z,101637.78
2022-12-25T22:42:42.285Z,101631.50
2022-12-25T22:45:10.858Z,101628.31
2022-12-25T22:47:38.273Z,101630.75
2022-12-25T22:50:06.040Z,101629.03
2022-12-25T22:52:33.440Z,101608.44
2022-12-25T22:55:00.558Z,101622.16
2022-12-25T22:57:27.796Z,101617.03
2022-12-25T22:59:56.146Z,101618.50
2022-12-25T23:02:26.623Z,101620.97
2022-12-25T23:04:56.102Z,101604.16
2022-12-25T23:07:26.010Z,101606.25
2022-12-25T23:09:52.956Z,101608.13
2022-12-25T23:12:38.404Z,101595.84
2022-12-25T23:15:07.919Z,101593.53
2022-12-25T23:17:53.881Z,101589.13
2022-12-25T23:20:39.522Z,101590.50
2022-12-25T23:23:25.888Z,101578.72
2022-12-25T23:26:07.523Z,101580.28
2022-12-25T23:28:53.760Z,101582.38
2022-12-25T23:31:25.402Z,101579.13
2022-12-25T23:33:52.590Z,101576.50
2022-12-25T23:36:19.487Z,101567.34
2022-12-25T23:38:46.579Z,101565.47
2022-12-25T23:41:13.553Z,101552.63
2022-12-25T23:43:41.286Z,101564.53
2022-12-25T23:46:11.037Z,101557.72
2022-12-25T23:48:43.531Z,101567.09
2022-12-25T23:51:10.717Z,101562.91
2022-12-25T23:53:38.000Z,101572.63
2022-12-25T23:56:08.372Z,101564.47
2022-12-25T23:58:36.264Z,101560.88
